Time;durP1;ratioP1;P1;durP2;ratioP2;P2;SDS_P1;SDS_P2;PMS_P1;PMS_P2;Temp;Humidity;BMP_temperature;BMP_pressure;BME280_temperature;BME280_humidity;BME280_pressure;Samples;Min_cycle;Max_cycle;Signal;HPM_P1;HPM_P2
2021/07/14 00:00:21;;;;;;;3.22;2.40;;;;;;;17.60;84.38;99839.25;5033639;28;20072;-58
2021/07/14 00:02:49;;;;;;;2.88;2.38;;;;;;;17.62;84.13;99848.88;5026634;28;20046;-57
2021/07/14 00:05:18;;;;;;;3.60;2.63;;;;;;;17.60;84.32;99840.09;5031060;28;20136;-58
2021/07/14 00:07:47;;;;;;;5.28;2.72;;;;;;;17.61;84.63;99839.13;5025129;28;20075;-59
2021/07/14 00:10:26;;;;;;;3.20;2.20;;;;;;;17.61;84.14;99836.47;5027857;28;20061;-58
2021/07/14 00:23:14;;;;;;;6.72;2.65;;;;;;;17.53;84.27;99846.94;5036169;28;20053;-58
2021/07/14 00:25:40;;;;;;;4.85;2.60;;;;;;;17.52;84.38;99850.59;5029716;28;20572;-58
2021/07/14 00:28:07;;;;;;;3.38;2.67;;;;;;;17.51;84.31;99852.44;5032311;28;20045;-57
2021/07/14 00:30:36;;;;;;;5.65;2.90;;;;;;;17.50;84.33;99836.50;5035335;28;20421;-58
2021/07/14 00:33:03;;;;;;;6.43;2.83;;;;;;;17.51;84.55;99844.41;5028879;28;20049;-58
2021/07/14 00:35:30;;;;;;;4.85;2.80;;;;;;;17.52;84.63;99834.53;5020055;28;20053;-57
2021/07/14 00:37:59;;;;;;;3.90;2.80;;;;;;;17.53;84.71;99828.22;5040742;28;20083;-57
2021/07/14 00:40:25;;;;;;;3.47;2.85;;;;;;;17.54;84.62;99836.13;5029295;28;20049;-57
2021/07/14 00:42:52;;;;;;;4.82;3.00;;;;;;;17.54;84.81;99843.28;5024363;28;20160;-58
2021/07/14 00:45:18;;;;;;;4.68;2.60;;;;;;;17.54;84.49;99840.63;5032475;28;20420;-58
2021/07/14 00:47:49;;;;;;;4.20;3.05;;;;;;;17.51;84.75;99847.06;5032584;28;20049;-57
2021/07/14 00:50:16;;;;;;;5.10;2.97;;;;;;;17.53;84.44;99844.28;5029456;28;20050;-58
2021/07/14 00:52:42;;;;;;;5.75;2.88;;;;;;;17.52;84.62;99831.84;5035742;28;20057;-57
2021/07/14 00:55:09;;;;;;;3.05;2.40;;;;;;;17.55;84.57;99836.97;5031491;28;20441;-59
2021/07/14 00:57:36;;;;;;;4.80;2.85;;;;;;;17.56;84.75;99837.81;5035233;28;20057;-58
2021/07/14 01:00:06;;;;;;;4.13;2.72;;;;;;;17.53;84.19;99836.25;5019115;28;20128;-59
2021/07/14 01:02:33;;;;;;;4.25;3.05;;;;;;;17.51;84.14;99835.50;5029280;28;20349;-57
2021/07/14 01:05:22;;;;;;;4.20;2.85;;;;;;;17.50;84.48;99833.81;5038866;28;20132;-59
2021/07/14 01:08:10;;;;;;;3.03;2.42;;;;;;;17.49;84.20;99824.94;5041102;28;20460;-58
2021/07/14 01:10:37;;;;;;;6.07;2.88;;;;;;;17.47;83.97;99821.53;5031970;28;20046;-58
2021/07/14 01:13:06;;;;;;;4.13;2.55;;;;;;;17.47;84.54;99828.75;5034368;28;20049;-58
2021/07/14 01:15:46;;;;;;;3.88;2.70;;;;;;;17.45;84.50;99828.03;5029571;28;20042;-59
2021/07/14 01:18:18;;;;;;;5.25;2.80;;;;;;;17.45;84.08;99828.88;5039429;28;20037;-58
2021/07/14 01:20:50;;;;;;;3.35;2.63;;;;;;;17.43;84.22;99822.78;5039434;28;20051;-59
2021/07/14 01:23:22;;;;;;;9.80;3.88;;;;;;;17.44;84.04;99831.69;5044189;28;20513;-60
2021/07/14 01:25:51;;;;;;;3.90;2.78;;;;;;;17.43;83.93;99835.31;5033410;28;20053;-58
2021/07/14 01:28:24;;;;;;;6.88;2.95;;;;;;;17.43;83.77;99829.97;5033714;28;20055;-58
2021/07/14 01:30:53;;;;;;;4.57;2.55;;;;;;;17.44;83.99;99829.00;5034754;28;20064;-59
2021/07/14 01:33:27;;;;;;;4.43;2.75;;;;;;;17.43;84.04;99828.16;5028215;28;20106;-59
2021/07/14 01:35:56;;;;;;;3.60;2.80;;;;;;;17.44;84.16;99823.66;5042100;28;20397;-58
2021/07/14 01:38:24;;;;;;;4.90;2.60;;;;;;;17.45;84.06;99818.16;5033127;28;20059;-58
2021/07/14 01:40:54;;;;;;;4.45;2.70;;;;;;;17.46;83.65;99801.13;5035452;28;20139;-59
2021/07/14 01:43:21;;;;;;;2.90;2.38;;;;;;;17.48;83.68;99798.28;5028588;28;20092;-58
2021/07/14 01:45:51;;;;;;;3.50;2.63;;;;;;;17.47;83.72;99801.97;5030005;28;20059;-59
2021/07/14 01:48:18;;;;;;;4.07;2.50;;;;;;;17.45;83.80;99809.28;5032528;28;20049;-59
2021/07/14 01:50:48;;;;;;;3.63;2.53;;;;;;;17.42;83.85;99813.06;5030843;28;20041;-58
2021/07/14 01:53:16;;;;;;;3.30;2.70;;;;;;;17.42;84.20;99817.56;5025166;28;20045;-58
2021/07/14 01:55:45;;;;;;;5.65;2.47;;;;;;;17.41;83.98;99819.41;5041635;28;20526;-58
2021/07/14 01:58:14;;;;;;;4.68;2.72;;;;;;;17.42;83.99;99814.88;5048633;28;20059;-58
2021/07/14 02:00:40;;;;;;;2.75;2.30;;;;;;;17.41;83.97;99807.84;5037554;28;20051;-58
2021/07/14 02:03:40;;;;;;;6.18;2.80;;;;;;;17.39;84.10;99796.41;5042137;28;20053;-59
2021/07/14 02:05:58;;;;;;;3.47;2.55;;;;;;;17.37;83.84;99807.25;5049535;28;20510;-59
2021/07/14 02:08:24;;;;;;;;;;;;;;;17.35;84.01;99809.19;5048345;28;20052;-58
2021/07/14 02:10:53;;;;;;;4.68;2.50;;;;;;;17.34;83.93;99804.81;5040941;28;21602;-58
2021/07/14 02:13:23;;;;;;;5.40;2.53;;;;;;;17.33;84.27;99796.91;5052340;28;20052;-59
2021/07/14 02:15:55;;;;;;;5.53;2.60;;;;;;;17.33;84.39;99794.25;5054116;28;20045;-58
2021/07/14 02:18:33;;;;;;;6.07;2.25;;;;;;;17.31;84.42;99782.84;5043486;28;20049;-58
2021/07/14 02:21:00;;;;;;;4.68;2.70;;;;;;;17.31;84.41;99788.19;5048067;28;20148;-60
2021/07/14 02:23:26;;;;;;;4.63;2.53;;;;;;;17.26;84.52;99791.25;5037748;28;20492;-59
2021/07/14 02:25:53;;;;;;;3.33;3.00;;;;;;;17.26;84.75;99803.78;5051610;28;20364;-58
2021/07/14 02:28:20;;;;;;;3.85;2.50;;;;;;;17.23;84.94;99807.56;5053447;28;20053;-59
2021/07/14 02:30:46;;;;;;;3.25;2.60;;;;;;;17.25;84.89;99799.41;5052297;28;20049;-58
2021/07/14 02:33:14;;;;;;;3.00;2.70;;;;;;;17.23;85.13;99807.56;5040464;28;20044;-58
2021/07/14 02:35:45;;;;;;;3.10;2.80;;;;;;;17.23;85.08;99804.88;5039570;28;20403;-58
2021/07/14 02:38:16;;;;;;;3.60;2.38;;;;;;;17.22;85.16;99819.22;5038432;28;20390;-58
2021/07/14 02:41:00;;;;;;;4.70;3.03;;;;;;;17.22;85.61;99829.09;5039394;28;20044;-59
2021/07/14 02:43:28;;;;;;;4.72;2.63;;;;;;;17.23;85.35;99822.75;5046979;28;20049;-60
2021/07/14 02:45:59;;;;;;;3.08;2.75;;;;;;;17.25;85.50;99824.34;5054396;28;20515;-58
2021/07/14 02:48:28;;;;;;;4.50;2.97;;;;;;;17.24;85.28;99821.78;5047522;28;20094;-58
2021/07/14 02:50:56;;;;;;;4.07;2.90;;;;;;;17.23;85.05;99826.28;5045313;28;20056;-58
2021/07/14 02:53:26;;;;;;;4.05;2.58;;;;;;;17.20;84.95;99815.81;5059230;28;20139;-58
2021/07/14 02:55:59;;;;;;;3.33;2.40;;;;;;;17.20;84.27;99815.81;5062516;28;20067;-58
2021/07/14 02:58:29;;;;;;;4.75;2.42;;;;;;;17.15;84.83;99820.75;5043887;28;20048;-60
2021/07/14 03:00:57;;;;;;;;;;;;;;;17.12;84.77;99821.84;5040712;28;20057;-58
2021/07/14 03:03:23;;;;;;;3.83;2.80;;;;;;;17.10;85.31;99821.09;5045440;28;19964;-59
2021/07/14 03:06:01;;;;;;;4.40;2.50;;;;;;;17.15;85.40;99826.09;5043579;28;20048;-57
2021/07/14 03:08:31;;;;;;;7.63;2.50;;;;;;;17.14;85.11;99817.22;5039033;28;20051;-57
2021/07/14 03:10:59;;;;;;;2.80;2.50;;;;;;;17.12;85.28;99824.50;5045205;28;20064;-58
2021/07/14 03:13:29;;;;;;;5.25;2.50;;;;;;;17.11;85.19;99821.97;5038589;28;20057;-58
2021/07/14 03:15:57;;;;;;;4.03;2.53;;;;;;;17.08;85.32;99817.72;5052178;28;20160;-57
2021/07/14 03:18:27;;;;;;;5.32;2.90;;;;;;;17.08;85.32;99811.50;5053955;28;20045;-55
2021/07/14 03:20:56;;;;;;;3.90;2.90;;;;;;;17.09;85.09;99798.00;5051575;28;20041;-58
2021/07/14 03:23:23;;;;;;;3.47;3.08;;;;;;;17.11;85.30;99804.09;5045163;28;20420;-58
2021/07/14 03:25:51;;;;;;;3.47;3.00;;;;;;;17.10;85.23;99799.72;5048439;28;20045;-58
2021/07/14 03:28:20;;;;;;;3.97;2.90;;;;;;;17.12;85.08;99800.44;5043960;28;20170;-57
2021/07/14 03:30:48;;;;;;;3.47;3.13;;;;;;;17.11;84.99;99792.53;5048399;28;20048;-56
2021/07/14 03:33:15;;;;;;;5.35;3.05;;;;;;;17.10;85.38;99789.00;5042728;28;20053;-58
2021/07/14 03:35:43;;;;;;;2.88;2.65;;;;;;;17.11;85.18;99787.19;5038693;28;20049;-55
2021/07/14 03:38:11;;;;;;;4.05;3.08;;;;;;;17.07;84.81;99789.25;5038858;28;20044;-58
2021/07/14 03:40:42;;;;;;;7.63;3.70;;;;;;;17.07;85.46;99794.59;5045650;28;20041;-59
2021/07/14 03:43:10;;;;;;;3.40;3.10;;;;;;;17.06;85.56;99798.25;5043920;28;20051;-57
2021/07/14 03:45:39;;;;;;;6.13;3.20;;;;;;;17.08;85.43;99807.00;5040523;28;20136;-58
2021/07/14 03:48:06;;;;;;;4.43;3.58;;;;;;;17.08;85.58;99801.66;5044976;28;20061;-60
2021/07/14 03:50:38;;;;;;;4.90;3.47;;;;;;;17.10;85.30;99810.41;5039311;28;20508;-57
2021/07/14 03:53:04;;;;;;;4.07;3.40;;;;;;;17.09;85.40;99808.72;5043445;28;20561;-60
2021/07/14 03:55:31;;;;;;;4.68;3.42;;;;;;;17.11;85.38;99808.59;5044447;28;20071;-59
2021/07/14 03:57:58;;;;;;;4.55;3.55;;;;;;;17.08;85.35;99809.69;5036933;28;20096;-57
2021/07/14 04:00:24;;;;;;;5.40;3.08;;;;;;;17.07;85.42;99813.34;5039846;28;20043;-59
2021/07/14 04:02:53;;;;;;;4.95;3.50;;;;;;;17.06;85.57;99816.97;5048283;28;20045;-58
2021/07/14 04:05:19;;;;;;;4.28;3.50;;;;;;;17.08;85.63;99812.34;5043474;28;20046;-59
2021/07/14 04:07:46;;;;;;;4.47;3.20;;;;;;;17.08;85.65;99815.03;5040430;28;20041;-58
2021/07/14 04:10:14;;;;;;;4.53;3.05;;;;;;;17.08;85.33;99816.84;5044669;28;20037;-58
2021/07/14 04:12:41;;;;;;;5.97;3.40;;;;;;;17.06;85.67;99811.63;5040774;28;20052;-59
2021/07/14 04:15:08;;;;;;;4.15;3.40;;;;;;;17.07;85.99;99813.34;5041355;28;20420;-58
2021/07/14 04:17:35;;;;;;;4.88;3.38;;;;;;;17.07;85.65;99821.34;5047202;28;20057;-58
2021/07/14 04:20:02;;;;;;;5.32;3.65;;;;;;;17.08;85.67;99809.69;5040513;28;20099;-58
2021/07/14 04:22:29;;;;;;;6.13;3.35;;;;;;;17.10;85.53;99802.38;5036420;28;20115;-59
2021/07/14 04:24:55;;;;;;;6.82;3.35;;;;;;;17.12;85.72;99797.75;5042459;28;20592;-57
2021/07/14 04:27:22;;;;;;;5.57;3.45;;;;;;;17.17;84.66;99797.34;5041487;28;20052;-56
2021/07/14 04:29:48;;;;;;;5.38;3.40;;;;;;;17.18;84.61;99805.25;5044405;28;20053;-57
2021/07/14 04:32:15;;;;;;;5.28;3.63;;;;;;;17.19;84.97;99819.47;5036705;28;20052;-58
2021/07/14 04:34:41;;;;;;;4.82;3.47;;;;;;;17.19;85.18;99820.34;5042231;28;20044;-58
2021/07/14 04:37:08;;;;;;;5.43;3.55;;;;;;;17.20;85.24;99829.22;5047136;28;20504;-59
2021/07/14 04:39:34;;;;;;;6.25;3.50;;;;;;;17.19;85.35;99824.84;5050451;28;20520;-57
2021/07/14 04:42:01;;;;;;;5.97;2.90;;;;;;;17.22;85.33;99832.59;5054871;28;20131;-59
2021/07/14 04:44:47;;;;;;;6.35;3.33;;;;;;;17.29;84.74;99830.28;5044238;28;20413;-58
2021/07/14 04:47:14;;;;;;;4.95;3.30;;;;;;;17.31;84.92;99828.34;5023358;28;20045;-59
2021/07/14 04:49:41;;;;;;;3.55;2.80;;;;;;;17.37;84.21;99833.16;5035912;28;20055;-58
2021/07/14 04:52:09;;;;;;;3.28;2.97;;;;;;;17.38;84.23;99834.84;5037903;28;20053;-59
2021/07/14 04:54:36;;;;;;;5.03;3.00;;;;;;;17.38;83.96;99841.06;5033777;28;20061;-60
2021/07/14 04:57:03;;;;;;;5.45;3.17;;;;;;;17.39;84.07;99825.84;5032352;28;20045;-58
2021/07/14 04:59:29;;;;;;;3.17;2.72;;;;;;;17.38;83.58;99827.69;5040008;28;20452;-58
2021/07/14 05:01:56;;;;;;;5.22;2.78;;;;;;;17.39;82.97;99828.53;5035703;28;20041;-57
2021/07/14 05:04:22;;;;;;;4.32;2.55;;;;;;;17.40;83.16;99831.06;5037194;28;20041;-59
2021/07/14 05:06:49;;;;;;;4.38;3.15;;;;;;;17.41;83.62;99829.25;5037469;28;20052;-59
2021/07/14 05:09:16;;;;;;;4.60;3.20;;;;;;;17.43;83.13;99827.28;5039399;28;20049;-58
2021/07/14 05:11:43;;;;;;;3.25;2.35;;;;;;;17.42;82.60;99817.56;5038515;28;20051;-59
2021/07/14 05:14:09;;;;;;;3.75;2.78;;;;;;;17.42;83.09;99821.09;5038233;28;20048;-60
2021/07/14 05:16:36;;;;;;;3.28;2.92;;;;;;;17.45;83.18;99822.66;5040194;28;20049;-60
2021/07/14 05:19:03;;;;;;;5.47;2.90;;;;;;;17.45;83.06;99820.00;5036866;28;20045;-58
2021/07/14 05:21:29;;;;;;;3.55;2.70;;;;;;;17.52;83.12;99829.19;5037706;28;20413;-59
2021/07/14 05:23:56;;;;;;;4.07;2.95;;;;;;;17.54;83.02;99824.56;5037808;28;20308;-59
2021/07/14 05:26:23;;;;;;;5.32;2.80;;;;;;;17.57;82.72;99823.44;5033869;28;20060;-61
2021/07/14 05:28:49;;;;;;;4.57;3.00;;;;;;;17.56;82.02;99827.94;5037728;28;20439;-58
2021/07/14 05:31:16;;;;;;;6.00;3.10;;;;;;;17.52;82.18;99824.69;5038803;28;20045;-60
2021/07/14 05:33:43;;;;;;;5.93;3.10;;;;;;;17.52;82.11;99831.84;5039982;28;20049;-58
2021/07/14 05:36:13;;;;;;;4.57;3.50;;;;;;;17.51;82.20;99830.16;5040493;28;20049;-56
2021/07/14 05:38:41;;;;;;;6.28;3.40;;;;;;;17.53;82.21;99828.22;5038104;28;20055;-58
2021/07/14 05:41:08;;;;;;;5.43;2.97;;;;;;;17.55;82.57;99831.59;5044610;28;20059;-56
2021/07/14 05:43:36;;;;;;;8.82;3.53;;;;;;;17.56;82.39;99824.44;5040735;28;20397;-58
2021/07/14 05:46:04;;;;;;;3.42;2.97;;;;;;;17.58;82.19;99819.78;5038783;28;20055;-57
2021/07/14 05:48:30;;;;;;;3.40;3.10;;;;;;;17.62;82.43;99824.78;5034957;28;20669;-60
2021/07/14 05:50:57;;;;;;;5.88;3.40;;;;;;;17.61;81.78;99824.91;5041920;28;20048;-58
2021/07/14 05:53:25;;;;;;;6.72;3.10;;;;;;;17.59;81.47;99829.53;5035242;28;20072;-58
2021/07/14 05:55:51;;;;;;;4.75;2.72;;;;;;;17.62;81.76;99824.78;5036471;28;20064;-58
2021/07/14 05:58:18;;;;;;;4.88;3.35;;;;;;;17.64;81.89;99830.84;5036770;28;20383;-58
2021/07/14 06:00:45;;;;;;;2.97;2.67;;;;;;;17.64;81.57;99830.00;5036681;28;20053;-58
2021/07/14 06:03:11;;;;;;;4.28;3.10;;;;;;;17.66;81.61;99834.25;5048092;28;20048;-57
2021/07/14 06:05:38;;;;;;;3.38;2.50;;;;;;;17.67;81.92;99830.59;5031635;28;20055;-58
2021/07/14 06:08:06;;;;;;;4.70;3.13;;;;;;;17.66;81.16;99834.25;5030337;28;20057;-58
2021/07/14 06:10:33;;;;;;;3.00;2.70;;;;;;;17.62;81.89;99834.63;5028305;28;20063;-55
2021/07/14 06:12:59;;;;;;;5.60;2.83;;;;;;;17.62;81.50;99832.78;5051168;28;20159;-56
2021/07/14 06:15:26;;;;;;;6.00;3.42;;;;;;;17.60;81.52;99825.88;5049538;28;20067;-60
2021/07/14 06:17:54;;;;;;;5.05;3.30;;;;;;;17.54;81.50;99822.72;5043427;28;20113;-57
2021/07/14 06:20:21;;;;;;;5.55;3.22;;;;;;;17.54;81.72;99827.22;5050105;28;20053;-58
2021/07/14 06:22:48;;;;;;;3.45;2.97;;;;;;;17.49;82.19;99843.66;5042977;28;20459;-57
2021/07/14 06:25:15;;;;;;;3.60;3.03;;;;;;;17.46;82.48;99835.06;5041030;28;20061;-57
2021/07/14 06:27:43;;;;;;;4.82;3.40;;;;;;;17.48;82.07;99841.13;5041780;28;20049;-55
2021/07/14 06:30:11;;;;;;;4.72;3.20;;;;;;;17.45;82.07;99838.72;5033560;28;20061;-58
2021/07/14 06:32:39;;;;;;;3.63;2.97;;;;;;;17.46;82.47;99835.94;5039294;28;20068;-59
2021/07/14 06:35:08;;;;;;;4.35;3.20;;;;;;;17.48;82.44;99830.41;5046038;28;20052;-59
2021/07/14 06:37:37;;;;;;;3.53;3.05;;;;;;;17.53;82.63;99836.25;5041530;28;20053;-56
2021/07/14 06:40:08;;;;;;;8.55;4.45;;;;;;;17.63;82.50;99828.28;5039238;28;20497;-56
2021/07/14 06:42:36;;;;;;;3.28;2.80;;;;;;;17.71;81.87;99836.53;5043933;28;20586;-58
2021/07/14 06:45:04;;;;;;;5.30;3.10;;;;;;;17.78;81.88;99829.69;5045822;28;20056;-58
2021/07/14 06:47:31;;;;;;;4.60;3.33;;;;;;;17.82;81.39;99823.06;5047323;28;20064;-60
2021/07/14 06:49:57;;;;;;;3.47;3.17;;;;;;;17.83;81.08;99814.06;5049214;28;20132;-59
2021/07/14 06:52:24;;;;;;;4.85;3.58;;;;;;;17.82;80.81;99812.34;5044356;28;20041;-59
2021/07/14 06:54:50;;;;;;;3.60;3.28;;;;;;;17.81;80.80;99811.50;5053286;28;20061;-57
2021/07/14 06:57:17;;;;;;;4.78;3.33;;;;;;;17.82;80.63;99812.34;5048438;28;20048;-61
2021/07/14 06:59:44;;;;;;;3.28;2.97;;;;;;;17.81;81.48;99806.16;5055595;28;20066;-60
2021/07/14 07:02:10;;;;;;;4.35;3.25;;;;;;;17.87;81.25;99807.47;5049817;28;20059;-57
2021/07/14 07:04:37;;;;;;;6.82;3.78;;;;;;;17.86;81.07;99793.22;5061735;28;20049;-58
2021/07/14 07:07:04;;;;;;;5.85;3.42;;;;;;;17.88;80.85;99793.94;5018036;28;20060;-61
2021/07/14 07:09:30;;;;;;;4.22;3.10;;;;;;;17.90;81.17;99787.59;5044159;28;20052;-59
2021/07/14 07:11:57;;;;;;;5.38;3.17;;;;;;;17.90;81.15;99795.63;5043676;28;20563;-58
2021/07/14 07:14:23;;;;;;;6.53;3.00;;;;;;;17.91;81.25;99790.16;5051162;28;20053;-61
2021/07/14 07:16:50;;;;;;;5.47;3.50;;;;;;;17.95;81.67;99788.88;5046886;28;20573;-59
2021/07/14 07:19:17;;;;;;;6.82;3.60;;;;;;;17.99;81.60;99784.97;5054615;28;20049;-59
2021/07/14 07:21:44;;;;;;;7.55;3.78;;;;;;;18.02;81.11;99782.03;5031185;28;20045;-57
2021/07/14 07:24:11;;;;;;;5.05;3.08;;;;;;;18.07;81.12;99784.31;5057863;28;20067;-59
2021/07/14 07:26:37;;;;;;;5.45;3.05;;;;;;;18.06;80.61;99782.59;5049528;28;20091;-59
2021/07/14 07:29:19;;;;;;;4.30;2.92;;;;;;;18.06;80.69;99787.97;5038681;28;20065;-59
2021/07/14 07:31:46;;;;;;;4.97;2.75;;;;;;;18.07;80.89;99795.03;5053184;28;20496;-58
2021/07/14 07:34:15;;;;;;;4.20;2.95;;;;;;;18.04;80.53;99800.66;5063273;28;20049;-58
2021/07/14 07:36:41;;;;;;;6.47;3.55;;;;;;;17.98;80.31;99802.00;5061044;28;20063;-59
2021/07/14 07:39:08;;;;;;;6.78;3.65;;;;;;;17.91;80.60;99808.91;5066395;28;20550;-60
2021/07/14 07:41:35;;;;;;;8.38;3.47;;;;;;;17.96;80.35;99808.47;5060396;28;20048;-60
2021/07/14 07:44:04;;;;;;;5.55;2.88;;;;;;;18.01;80.50;99815.16;5039719;28;20119;-58
2021/07/14 07:46:31;;;;;;;5.18;2.65;;;;;;;18.06;80.86;99826.31;5045429;28;20076;-60
2021/07/14 07:48:59;;;;;;;4.75;3.10;;;;;;;18.09;80.31;99827.88;5054858;28;20049;-58
2021/07/14 07:51:25;;;;;;;4.70;3.80;;;;;;;18.08;80.00;99826.19;5059165;28;20041;-59
2021/07/14 07:53:53;;;;;;;5.45;3.40;;;;;;;18.10;79.90;99826.91;5058925;28;20063;-58
2021/07/14 07:56:21;;;;;;;4.95;2.90;;;;;;;18.10;79.88;99830.41;5058257;28;20575;-57
2021/07/14 07:58:47;;;;;;;6.35;3.15;;;;;;;18.06;79.92;99828.16;5068106;28;20074;-58
2021/07/14 08:01:14;;;;;;;5.95;3.17;;;;;;;17.98;80.23;99827.94;5047265;28;20216;-59
2021/07/14 08:03:40;;;;;;;4.30;3.38;;;;;;;17.94;80.46;99823.88;5046908;28;20782;-58
2021/07/14 08:06:07;;;;;;;3.50;3.08;;;;;;;17.94;81.15;99813.16;5054462;28;20076;-58
2021/07/14 08:08:34;;;;;;;5.55;3.30;;;;;;;17.95;80.87;99809.47;5051465;28;20061;-59
2021/07/14 08:11:00;;;;;;;5.93;3.28;;;;;;;18.00;81.32;99810.78;5060147;28;20667;-59
2021/07/14 08:13:27;;;;;;;7.05;3.55;;;;;;;18.04;81.25;99811.34;5052017;28;20168;-60
2021/07/14 08:15:56;;;;;;;5.10;3.47;;;;;;;18.04;80.88;99806.00;5051884;28;20143;-59
2021/07/14 08:18:23;;;;;;;5.90;3.13;;;;;;;18.04;81.15;99816.72;5057394;28;20045;-58
2021/07/14 08:20:51;;;;;;;5.75;2.90;;;;;;;18.04;81.19;99822.94;5056135;28;22298;-59
2021/07/14 08:23:18;;;;;;;7.32;3.10;;;;;;;18.10;80.33;99822.38;5053496;28;20048;-58
2021/07/14 08:25:44;;;;;;;6.75;3.40;;;;;;;18.05;80.60;99823.78;5056227;28;20044;-59
2021/07/14 08:28:12;;;;;;;4.05;3.35;;;;;;;18.01;80.78;99827.69;5048939;28;20136;-58
2021/07/14 08:30:39;;;;;;;6.05;3.25;;;;;;;18.01;80.94;99825.00;5056188;28;20060;-59
2021/07/14 08:33:06;;;;;;;5.53;3.95;;;;;;;17.96;80.99;99827.22;5050885;28;20040;-59
2021/07/14 08:35:32;;;;;;;5.53;3.47;;;;;;;17.92;81.26;99826.69;5058988;28;20053;-59
2021/07/14 08:37:59;;;;;;;4.57;3.30;;;;;;;17.90;82.01;99822.44;5052878;28;20045;-58
2021/07/14 08:40:25;;;;;;;7.03;3.65;;;;;;;17.87;82.45;99811.00;5056512;28;20108;-59
2021/07/14 08:42:58;;;;;;;6.43;3.50;;;;;;;17.87;82.51;99811.00;5045192;28;21111;-60
2021/07/14 08:45:25;;;;;;;5.65;3.50;;;;;;;17.84;82.39;99808.56;5053365;28;20530;-58
2021/07/14 08:48:16;;;;;;;5.70;3.92;;;;;;;17.84;82.52;99813.94;5046284;28;20043;-60
2021/07/14 08:50:44;;;;;;;8.85;4.20;;;;;;;17.81;82.86;99830.25;5043658;28;20048;-59
2021/07/14 08:53:17;;;;;;;6.82;3.80;;;;;;;17.80;83.78;99833.91;5044810;28;20059;-59
2021/07/14 08:55:45;;;;;;;6.80;3.90;;;;;;;17.79;84.56;99834.88;5043993;28;20220;-60
2021/07/14 08:58:17;;;;;;;6.68;4.45;;;;;;;17.78;84.63;99843.09;5050574;28;20393;-57
2021/07/14 09:00:45;;;;;;;5.63;4.45;;;;;;;17.72;85.31;99854.31;5042653;28;20566;-59
2021/07/14 09:03:13;;;;;;;6.32;4.03;;;;;;;17.61;85.72;99862.38;5044083;28;20462;-59
2021/07/14 09:05:40;;;;;;;9.00;4.43;;;;;;;17.58;85.76;99866.16;5045228;28;20057;-59
2021/07/14 09:08:07;;;;;;;9.88;6.07;;;;;;;17.57;86.33;99875.16;5040784;28;20090;-58
2021/07/14 09:10:34;;;;;;;9.57;4.70;;;;;;;17.63;86.41;99881.84;5047010;28;20428;-59
2021/07/14 09:13:02;;;;;;;7.78;5.10;;;;;;;17.67;86.04;99884.16;5055912;28;20063;-58
2021/07/14 09:15:31;;;;;;;9.43;5.50;;;;;;;17.69;85.83;99884.88;5052189;28;20051;-59
2021/07/14 09:18:00;;;;;;;6.85;4.80;;;;;;;17.69;86.02;99895.56;5055555;28;20122;-59
2021/07/14 09:20:50;;;;;;;13.15;5.28;;;;;;;17.68;85.89;99901.91;5046939;28;20824;-59
2021/07/14 09:23:22;;;;;;;9.27;5.20;;;;;;;17.69;85.56;99900.09;5044912;28;20044;-57
2021/07/14 09:25:53;;;;;;;9.00;4.60;;;;;;;17.69;85.15;99892.91;5040930;28;20418;-58
2021/07/14 09:28:22;;;;;;;7.90;3.92;;;;;;;17.74;85.49;99893.38;5044496;28;20126;-58
2021/07/14 09:30:57;;;;;;;6.95;4.43;;;;;;;17.81;84.73;99893.69;5048395;28;20059;-60
2021/07/14 09:33:24;;;;;;;6.10;4.22;;;;;;;17.90;84.77;99884.88;5042214;28;20041;-59
2021/07/14 09:35:52;;;;;;;5.88;4.13;;;;;;;17.99;83.94;99880.56;5049076;28;20052;-59
2021/07/14 09:38:30;;;;;;;6.72;4.22;;;;;;;18.08;83.51;99877.94;5055718;28;20454;-60
2021/07/14 09:40:59;;;;;;;7.07;4.18;;;;;;;18.10;82.49;99875.16;5042708;28;20053;-60
2021/07/14 09:43:28;;;;;;;8.18;4.28;;;;;;;18.05;82.47;99877.34;5050113;28;20092;-60
2021/07/14 09:46:06;;;;;;;7.57;3.75;;;;;;;17.97;82.85;99878.00;5052734;28;20058;-59
2021/07/14 09:48:41;;;;;;;7.63;4.20;;;;;;;18.03;82.94;99871.28;5041970;28;20053;-59
2021/07/14 09:51:21;;;;;;;6.88;4.25;;;;;;;18.13;83.17;99874.84;5045505;28;20135;-59
2021/07/14 09:53:49;;;;;;;;;;;;;;;18.25;82.18;99875.66;5048817;28;20706;-59
2021/07/14 09:56:22;;;;;;;5.82;4.43;;;;;;;18.39;81.85;99877.97;5052503;28;19927;-59
2021/07/14 09:59:09;;;;;;;6.60;4.55;;;;;;;18.54;80.76;99877.47;5049999;28;20121;-59
2021/07/14 10:01:38;;;;;;;7.25;4.20;;;;;;;18.55;80.20;99887.22;5047632;28;20048;-59
2021/07/14 10:04:05;;;;;;;7.15;4.20;;;;;;;18.57;80.18;99887.09;5050900;28;20053;-59
2021/07/14 10:07:05;;;;;;;7.20;3.97;;;;;;;18.63;80.11;99875.81;5043495;28;20071;-59
2021/07/14 10:09:32;;;;;;;6.97;4.20;;;;;;;18.75;80.43;99879.25;5029961;28;20049;-59
2021/07/14 10:12:35;;;;;;;5.40;4.38;;;;;;;18.86;79.57;99887.19;5043361;28;20045;-59
2021/07/14 10:15:08;;;;;;;7.20;4.13;;;;;;;18.76;79.45;99886.31;5042657;28;20122;-61
2021/07/14 10:17:47;;;;;;;8.18;5.05;;;;;;;18.63;80.00;99888.38;5045606;28;20063;-58
2021/07/14 10:20:37;;;;;;;9.13;5.90;;;;;;;18.59;80.51;99890.47;5046199;28;20044;-57
2021/07/14 10:23:10;;;;;;;10.32;5.88;;;;;;;18.52;81.53;99892.84;5051385;28;20064;-59
2021/07/14 10:25:42;;;;;;;7.35;5.40;;;;;;;18.45;81.04;99897.03;5038253;28;20493;-59
2021/07/14 10:28:12;;;;;;;9.25;6.60;;;;;;;18.42;80.91;99893.75;5045830;28;20049;-58
2021/07/14 10:30:41;;;;;;;11.38;6.63;;;;;;;18.45;81.16;99888.13;5049548;28;20064;-59
2021/07/14 10:33:10;;;;;;;7.30;6.07;;;;;;;18.46;80.87;99884.47;5046740;28;20076;-59
2021/07/14 10:35:41;;;;;;;9.82;6.07;;;;;;;18.45;81.10;99891.66;5051749;28;20488;-60
2021/07/14 10:38:19;;;;;;;7.55;5.97;;;;;;;18.43;81.34;99892.78;5044951;28;20075;-60
2021/07/14 10:40:48;;;;;;;9.80;6.20;;;;;;;18.40;80.86;99904.66;5046047;28;20050;-60
2021/07/14 10:43:18;;;;;;;8.57;5.90;;;;;;;18.45;80.93;99901.53;5059490;28;21769;-58
2021/07/14 10:45:47;;;;;;;9.45;6.40;;;;;;;18.46;80.54;99908.59;5047211;28;20045;-57
2021/07/14 10:48:18;;;;;;;8.98;6.57;;;;;;;18.42;80.92;99897.28;5055506;28;20048;-59
2021/07/14 10:50:47;;;;;;;7.10;5.75;;;;;;;18.41;80.80;99895.63;5046093;28;20059;-58
2021/07/14 10:53:18;;;;;;;7.93;6.07;;;;;;;18.46;81.12;99908.59;5037041;28;20622;-57
2021/07/14 10:55:46;;;;;;;8.52;5.85;;;;;;;18.47;81.13;99900.44;5047411;28;20057;-60
2021/07/14 10:58:18;;;;;;;8.98;5.90;;;;;;;18.46;80.83;99903.25;5043472;28;20067;-57
2021/07/14 11:00:46;;;;;;;9.73;6.25;;;;;;;18.47;81.36;99905.78;5043813;28;20055;-58
2021/07/14 11:03:31;;;;;;;7.70;5.35;;;;;;;18.50;80.93;99920.75;5041457;28;20458;-59
2021/07/14 11:05:58;;;;;;;9.18;6.22;;;;;;;18.48;80.76;99918.22;5043080;28;20053;-60
2021/07/14 11:08:39;;;;;;;6.93;5.75;;;;;;;18.41;80.77;99930.47;5044911;28;20056;-59
2021/07/14 11:11:11;;;;;;;8.50;5.78;;;;;;;18.38;81.37;99924.53;5038577;28;20417;-59
2021/07/14 11:13:41;;;;;;;9.27;5.82;;;;;;;18.34;81.63;99920.41;5044067;28;20060;-59
2021/07/14 11:16:29;;;;;;;13.13;6.65;;;;;;;18.28;82.77;99927.13;5048302;28;20050;-59
2021/07/14 11:19:22;;;;;;;11.40;6.53;;;;;;;18.29;83.39;99923.47;5045258;28;20792;-58
2021/07/14 11:22:03;;;;;;;9.35;6.20;;;;;;;18.29;83.58;99923.47;5043844;28;20704;-61
2021/07/14 11:24:35;;;;;;;10.07;6.30;;;;;;;18.27;84.00;99924.56;5039457;28;20041;-58
2021/07/14 11:27:27;;;;;;;8.77;6.32;;;;;;;18.26;84.58;99925.59;5044556;28;20049;-60
2021/07/14 11:30:16;;;;;;;9.75;6.47;;;;;;;18.23;85.05;99919.50;5053063;28;20133;-58
2021/07/14 11:32:43;;;;;;;7.65;6.43;;;;;;;18.21;85.10;99917.94;5049269;28;20052;-61
2021/07/14 11:35:19;;;;;;;7.68;6.47;;;;;;;18.27;86.05;99913.84;5046130;28;20049;-58
2021/07/14 11:37:55;;;;;;;19.08;6.38;;;;;;;18.32;86.18;99907.13;5045414;28;20049;-58
2021/07/14 11:40:23;;;;;;;13.93;8.35;;;;;;;18.39;86.21;99908.31;5048722;28;20060;-58
2021/07/14 11:42:53;;;;;;;10.38;6.95;;;;;;;18.33;85.97;99911.50;5067012;28;20057;-58
2021/07/14 11:45:26;;;;;;;9.50;6.68;;;;;;;18.20;85.92;99926.94;5047562;28;20053;-57
2021/07/14 11:48:03;;;;;;;8.48;6.38;;;;;;;18.06;87.48;99917.41;5055699;28;20065;-57
2021/07/14 11:50:49;;;;;;;11.30;7.07;;;;;;;17.99;88.22;99912.69;5047920;28;20528;-57
2021/07/14 11:53:24;;;;;;;7.30;6.40;;;;;;;17.96;88.70;99921.00;5056933;28;20090;-57
2021/07/14 11:55:57;;;;;;;10.48;6.20;;;;;;;17.92;88.79;99919.56;5060984;28;20065;-58